createdAt,value
2018-06-20T16:00:28.677Z,26.70
2018-06-20T16:00:53.428Z,26.80
2018-06-20T16:01:18.432Z,26.80
2018-06-20T16:01:43.264Z,26.80
2018-06-20T16:02:08.162Z,26.80
2018-06-20T16:02:32.936Z,26.80
2018-06-20T16:11:18.655Z,26.80
2018-06-20T16:18:00.871Z,26.40
2018-06-20T16:26:06.959Z,26.30
2018-06-20T16:31:11.994Z,26.20
2018-06-20T16:36:17.101Z,26.30
2018-06-20T16:41:22.206Z,26.30
2018-06-20T16:46:27.386Z,26.20
2018-06-20T16:51:32.480Z,26.20
2018-06-20T16:56:37.488Z,26.10
2018-06-20T17:01:47.646Z,26.30
2018-06-20T17:06:52.652Z,26.40
2018-06-20T17:12:02.838Z,26.50
2018-06-20T17:17:13.226Z,26.50
2018-06-20T17:22:23.406Z,26.50
2018-06-20T17:27:28.525Z,26.60
2018-06-20T17:32:33.676Z,26.50
2018-06-20T17:37:38.901Z,26.50
2018-06-20T17:42:43.958Z,26.40
2018-06-20T17:47:49.151Z,26.50
2018-06-20T17:52:54.418Z,26.50
2018-06-20T17:57:59.544Z,26.50
2018-06-20T18:03:07.473Z,26.40
2018-06-20T18:08:17.428Z,26.40
2018-06-20T18:13:26.715Z,26.40
2018-06-20T18:18:31.834Z,26.30
2018-06-20T18:23:36.833Z,26.40
2018-06-20T18:28:41.933Z,26.30
2018-06-20T18:33:46.977Z,26.20
2018-06-20T18:38:52.176Z,26.20
2018-06-20T18:43:57.267Z,26.20
2018-06-20T18:49:02.242Z,26.30
2018-06-20T18:54:07.349Z,26.20
2018-06-20T19:01:19.332Z,26.30
2018-06-20T19:06:29.670Z,26.30
2018-06-20T19:11:34.616Z,26.10
2018-06-20T19:16:39.779Z,26.10
2018-06-20T19:21:45.097Z,26.20
2018-06-20T19:26:50.238Z,26.20
2018-06-20T19:31:55.309Z,26.10
2018-06-20T19:37:00.420Z,26.00
2018-06-20T19:42:05.474Z,26.10
2018-06-20T19:47:10.475Z,26.20
2018-06-20T19:52:15.294Z,26.20
2018-06-20T19:57:21.013Z,26.20
2018-06-20T20:02:26.021Z,26.10
2018-06-20T20:07:30.994Z,26.10
2018-06-20T20:12:36.132Z,26.30
2018-06-20T20:17:41.133Z,26.00
2018-06-20T20:22:46.305Z,25.90
2018-06-20T20:27:51.376Z,25.90
2018-06-20T20:32:56.355Z,25.90
2018-06-20T20:38:01.515Z,25.90
2018-06-20T20:43:06.645Z,25.90
2018-06-20T20:48:11.748Z,25.90
2018-06-20T20:53:16.673Z,26.10
2018-06-20T20:58:21.833Z,26.00
2018-06-20T21:03:27.094Z,26.00
2018-06-20T21:08:32.273Z,25.90
2018-06-20T21:18:42.076Z,25.90
2018-06-20T21:23:47.064Z,25.90
2018-06-20T21:28:52.387Z,25.90
2018-06-20T21:33:57.190Z,25.90
2018-06-20T21:39:02.561Z,25.90
2018-06-20T21:44:07.776Z,25.90
2018-06-20T21:49:12.823Z,25.90
2018-06-20T21:54:17.809Z,25.90
2018-06-20T21:59:23.062Z,26.00
2018-06-20T22:04:28.077Z,25.90
2018-06-20T22:09:33.510Z,25.90
2018-06-20T22:14:38.717Z,25.90
2018-06-20T22:19:43.525Z,25.90
2018-06-20T22:24:48.595Z,25.90
2018-06-20T22:29:53.536Z,25.90
2018-06-20T22:34:58.619Z,25.90
2018-06-20T22:40:03.760Z,25.90
2018-06-20T22:45:08.912Z,25.90
2018-06-20T22:50:14.026Z,25.90
2018-06-20T22:55:19.134Z,25.90
2018-06-20T23:00:24.584Z,25.90
2018-06-20T23:05:29.686Z,25.90
2018-06-20T23:10:34.679Z,25.90
2018-06-20T23:15:39.788Z,25.80
2018-06-20T23:20:44.720Z,25.90
2018-06-20T23:25:49.733Z,25.90
2018-06-20T23:30:54.648Z,25.90
2018-06-20T23:35:59.805Z,25.80
2018-06-20T23:41:04.733Z,25.90
2018-06-20T23:46:09.737Z,25.90
2018-06-20T23:51:14.767Z,25.90
2018-06-20T23:56:19.614Z,25.90
